createdAt,value
2018-09-10T00:00:08.287Z,17.60
2018-09-10T00:02:36.540Z,17.50
2018-09-10T00:05:04.861Z,17.50
2018-09-10T00:07:33.116Z,17.50
2018-09-10T00:10:01.364Z,17.50
2018-09-10T00:12:29.595Z,17.50
2018-09-10T00:14:57.828Z,17.50
2018-09-10T00:17:26.075Z,17.50
2018-09-10T00:19:54.320Z,17.50
2018-09-10T00:22:22.566Z,17.40
2018-09-10T00:24:50.822Z,17.40
2018-09-10T00:27:19.071Z,17.40
2018-09-10T00:29:47.317Z,17.40
2018-09-10T00:32:15.556Z,17.40
2018-09-10T00:34:43.802Z,17.50
2018-09-10T00:37:12.029Z,17.50
2018-09-10T00:39:41.206Z,17.50
2018-09-10T00:42:09.436Z,17.40
2018-09-10T00:44:37.674Z,17.50
2018-09-10T00:47:06.063Z,17.50
2018-09-10T00:49:34.287Z,17.50
2018-09-10T00:52:02.523Z,17.50
2018-09-10T00:54:30.784Z,17.50
2018-09-10T00:56:59.023Z,17.50
2018-09-10T00:59:27.269Z,17.50
2018-09-10T01:01:55.808Z,17.50
2018-09-10T01:04:24.029Z,17.50
2018-09-10T01:06:52.682Z,17.50
2018-09-10T01:09:20.939Z,17.50
2018-09-10T01:11:49.171Z,17.50
2018-09-10T01:14:17.399Z,17.60
2018-09-10T01:16:45.676Z,17.60
2018-09-10T01:19:13.922Z,17.50
2018-09-10T01:21:42.164Z,17.50
2018-09-10T01:24:10.413Z,17.50
2018-09-10T01:26:38.751Z,17.50
2018-09-10T01:29:06.974Z,17.40
2018-09-10T01:31:35.191Z,17.50
2018-09-10T01:34:08.784Z,17.50
2018-09-10T01:36:37.094Z,17.50
2018-09-10T01:39:06.767Z,17.50
2018-09-10T01:41:35.056Z,17.50
2018-09-10T01:44:03.480Z,17.50
2018-09-10T01:46:31.705Z,17.50
2018-09-10T01:48:59.934Z,17.60
2018-09-10T01:51:28.204Z,17.60
2018-09-10T01:53:56.422Z,17.60
2018-09-10T01:56:24.682Z,17.60
2018-09-10T01:58:52.937Z,17.60
2018-09-10T02:01:21.221Z,17.60
2018-09-10T02:03:49.458Z,17.60
2018-09-10T02:06:17.751Z,17.60
2018-09-10T02:08:46.069Z,17.60
2018-09-10T02:11:14.334Z,17.60
2018-09-10T02:13:42.578Z,17.60
2018-09-10T02:16:15.186Z,17.60
2018-09-10T02:18:44.346Z,17.60
2018-09-10T02:21:12.647Z,17.60
2018-09-10T02:23:40.993Z,17.50
2018-09-10T02:26:09.169Z,17.50
2018-09-10T02:28:37.428Z,17.60
2018-09-10T02:31:06.175Z,17.60
2018-09-10T02:33:34.410Z,17.50
2018-09-10T02:36:02.855Z,17.50
2018-09-10T02:38:31.129Z,17.50
2018-09-10T02:40:59.355Z,17.50
2018-09-10T02:43:27.619Z,17.50
2018-09-10T02:45:55.878Z,17.50
2018-09-10T02:48:24.118Z,17.50
2018-09-10T02:50:52.359Z,17.50
2018-09-10T02:53:20.632Z,17.60
2018-09-10T02:55:48.867Z,17.60
2018-09-10T02:58:17.108Z,17.60
2018-09-10T03:00:45.383Z,17.60
2018-09-10T03:03:13.675Z,17.60
2018-09-10T03:05:41.900Z,17.60
2018-09-10T03:08:10.194Z,17.60
2018-09-10T03:10:38.456Z,17.60
2018-09-10T03:13:06.727Z,17.60
2018-09-10T03:15:34.970Z,17.60
2018-09-10T03:18:03.295Z,17.50
2018-09-10T03:20:31.466Z,17.50
2018-09-10T03:22:59.763Z,17.40
2018-09-10T03:25:27.986Z,17.40
2018-09-10T03:27:56.250Z,17.30
2018-09-10T03:30:24.497Z,17.30
2018-09-10T03:32:52.739Z,17.30
2018-09-10T03:35:20.999Z,17.30
2018-09-10T03:37:49.283Z,17.30
2018-09-10T03:40:17.522Z,17.30
2018-09-10T03:42:45.758Z,17.30
2018-09-10T03:45:14.040Z,17.30
2018-09-10T03:47:42.275Z,17.30
2018-09-10T03:50:10.514Z,17.30
2018-09-10T03:52:38.747Z,17.30
2018-09-10T03:55:06.972Z,17.30
2018-09-10T03:57:35.210Z,17.30
2018-09-10T04:00:03.457Z,17.30
2018-09-10T04:02:31.706Z,17.30
2018-09-10T04:04:59.941Z,17.30
2018-09-10T04:07:28.185Z,17.30
2018-09-10T04:09:56.416Z,17.30
2018-09-10T04:12:24.671Z,17.30
2018-09-10T04:14:52.920Z,17.20
2018-09-10T04:17:21.247Z,17.20
2018-09-10T04:19:49.460Z,17.10
2018-09-10T04:22:17.697Z,17.10
2018-09-10T04:24:45.955Z,17.10
2018-09-10T04:27:14.248Z,17.10
2018-09-10T04:29:42.491Z,17.20
2018-09-10T04:32:10.719Z,17.20
2018-09-10T04:34:38.954Z,17.20
2018-09-10T04:37:07.184Z,17.10
2018-09-10T04:39:35.412Z,17.10
2018-09-10T04:42:03.680Z,17.10
2018-09-10T04:44:31.969Z,17.00
2018-09-10T04:47:00.193Z,17.00
2018-09-10T04:49:28.437Z,17.00
2018-09-10T04:51:56.674Z,17.10
2018-09-10T04:54:24.909Z,17.10
2018-09-10T04:56:53.134Z,17.10
2018-09-10T04:59:21.408Z,17.10
2018-09-10T05:01:49.647Z,17.10
2018-09-10T05:04:17.884Z,17.10
2018-09-10T05:06:46.117Z,17.10
2018-09-10T05:09:14.372Z,17.10
2018-09-10T05:11:42.638Z,17.10
2018-09-10T05:14:10.923Z,17.10
2018-09-10T05:16:39.137Z,17.00
2018-09-10T05:19:07.362Z,17.00
2018-09-10T05:21:35.639Z,17.00
2018-09-10T05:24:03.907Z,17.10
2018-09-10T05:26:32.147Z,17.10
2018-09-10T05:29:00.402Z,17.20
2018-09-10T05:31:28.640Z,17.10
2018-09-10T05:33:56.916Z,17.10
2018-09-10T05:36:25.167Z,17.10
2018-09-10T05:38:53.402Z,17.20
2018-09-10T05:41:21.641Z,17.10
2018-09-10T05:43:49.972Z,17.10
2018-09-10T05:46:18.194Z,17.20
2018-09-10T05:48:46.494Z,17.20
2018-09-10T05:51:14.732Z,17.20
2018-09-10T05:53:42.960Z,17.20
2018-09-10T05:56:11.219Z,17.20
2018-09-10T05:58:39.475Z,17.20
2018-09-10T06:01:07.703Z,17.20
2018-09-10T06:03:35.955Z,17.20
2018-09-10T06:06:04.195Z,17.30
2018-09-10T06:08:32.443Z,17.30
2018-09-10T06:11:00.675Z,17.30
2018-09-10T06:13:28.927Z,17.30
2018-09-10T06:15:57.211Z,17.30
2018-09-10T06:18:25.407Z,17.30
2018-09-10T06:20:53.659Z,17.30
2018-09-10T06:23:21.885Z,17.30
2018-09-10T06:25:50.138Z,17.30
2018-09-10T06:28:18.436Z,17.30
2018-09-10T06:30:46.756Z,17.30
2018-09-10T06:33:14.983Z,17.30
2018-09-10T06:35:43.247Z,17.30
2018-09-10T06:38:11.483Z,17.40
2018-09-10T06:40:39.737Z,17.40
2018-09-10T06:43:07.987Z,17.40
2018-09-10T06:45:36.239Z,17.50
2018-09-10T06:48:04.475Z,17.50
2018-09-10T06:50:32.737Z,17.60
2018-09-10T06:53:00.978Z,17.60
2018-09-10T06:55:29.203Z,17.60
2018-09-10T06:57:57.451Z,17.70
2018-09-10T07:00:25.756Z,17.70
2018-09-10T07:02:53.985Z,17.70
2018-09-10T07:05:22.224Z,17.70
2018-09-10T07:07:50.473Z,17.70
2018-09-10T07:10:18.708Z,17.70
2018-09-10T07:12:47.041Z,17.80
2018-09-10T07:15:15.223Z,17.80
2018-09-10T07:17:43.483Z,17.90
2018-09-10T07:20:11.715Z,17.90
2018-09-10T07:22:39.940Z,18.00
2018-09-10T07:25:08.199Z,18.20
2018-09-10T07:27:36.480Z,18.50
2018-09-10T07:30:05.504Z,18.70
2018-09-10T07:32:33.727Z,18.80
2018-09-10T07:35:01.967Z,18.90
2018-09-10T07:37:30.211Z,19.40
2018-09-10T07:39:58.467Z,20.10
2018-09-10T07:42:26.736Z,20.80
2018-09-10T07:44:54.955Z,21.60
2018-09-10T07:47:23.221Z,22.10
2018-09-10T07:49:51.462Z,22.50
2018-09-10T07:52:19.723Z,22.40
2018-09-10T07:54:47.957Z,22.30
2018-09-10T07:57:16.207Z,22.30
2018-09-10T07:59:44.445Z,22.90
2018-09-10T08:02:12.658Z,23.50
2018-09-10T08:04:40.923Z,24.20
2018-09-10T08:07:09.171Z,24.90
2018-09-10T08:09:37.436Z,25.10
2018-09-10T08:12:05.919Z,25.30
2018-09-10T08:14:34.181Z,25.10
2018-09-10T08:17:02.432Z,25.30
2018-09-10T08:19:30.671Z,25.50
2018-09-10T08:21:58.912Z,25.90
2018-09-10T08:24:27.241Z,25.70
2018-09-10T08:26:55.415Z,25.20
2018-09-10T08:29:23.679Z,24.50
2018-09-10T08:31:51.938Z,24.00
2018-09-10T08:34:20.181Z,23.30
2018-09-10T08:36:48.419Z,22.70
2018-09-10T08:39:16.704Z,22.30
2018-09-10T08:41:44.937Z,22.00
2018-09-10T08:44:13.183Z,21.90
2018-09-10T08:46:41.431Z,21.70
2018-09-10T08:49:09.670Z,21.60
2018-09-10T08:51:37.904Z,21.40
2018-09-10T08:54:06.199Z,21.40
2018-09-10T08:56:34.463Z,21.40
2018-09-10T08:59:02.716Z,21.60
2018-09-10T09:01:30.947Z,21.90
2018-09-10T09:03:59.204Z,22.20
2018-09-10T09:06:27.488Z,22.40
2018-09-10T09:08:55.693Z,22.50
2018-09-10T09:11:23.928Z,22.60
2018-09-10T09:13:52.171Z,22.90
2018-09-10T09:16:20.394Z,23.40
2018-09-10T09:18:48.627Z,23.80
2018-09-10T09:21:16.983Z,24.00
2018-09-10T09:23:45.259Z,24.30
2018-09-10T09:26:13.507Z,24.80
2018-09-10T09:28:41.752Z,24.90
2018-09-10T09:31:09.999Z,25.20
2018-09-10T09:33:38.235Z,25.60
2018-09-10T09:36:12.001Z,26.00
2018-09-10T09:38:45.654Z,25.80
2018-09-10T09:41:19.307Z,25.20
2018-09-10T09:43:53.047Z,24.50
2018-09-10T09:46:21.620Z,24.00
2018-09-10T09:48:49.846Z,23.60
2018-09-10T09:51:18.145Z,23.10
2018-09-10T09:53:46.315Z,22.80
2018-09-10T09:56:14.555Z,22.40
2018-09-10T09:58:42.782Z,22.30
2018-09-10T10:01:16.558Z,22.70
2018-09-10T10:03:50.383Z,23.60
2018-09-10T10:06:18.637Z,24.50
2018-09-10T10:08:46.896Z,24.70
2018-09-10T10:11:15.156Z,24.80
2018-09-10T10:13:43.385Z,25.00
2018-09-10T10:16:11.639Z,25.10
2018-09-10T10:18:39.872Z,25.20
2018-09-10T10:21:08.175Z,25.10
2018-09-10T10:23:36.419Z,24.80
2018-09-10T10:29:26.909Z,24.30
2018-09-10T10:31:55.163Z,24.10
2018-09-10T10:34:23.520Z,24.20
2018-09-10T10:36:51.875Z,24.30
2018-09-10T10:39:20.217Z,24.40
2018-09-10T10:41:48.391Z,24.60
2018-09-10T10:44:16.629Z,24.80
2018-09-10T10:46:44.867Z,25.10
2018-09-10T10:49:13.124Z,25.40
2018-09-10T10:51:41.382Z,25.50
2018-09-10T10:54:09.635Z,25.30
2018-09-10T10:56:37.884Z,25.10
2018-09-10T10:59:06.143Z,24.90
2018-09-10T11:01:34.371Z,24.90
2018-09-10T11:04:02.702Z,24.90
2018-09-10T11:06:30.936Z,24.80
2018-09-10T11:08:59.172Z,24.70
2018-09-10T11:11:27.434Z,24.70
2018-09-10T11:13:55.684Z,24.80
2018-09-10T11:16:23.939Z,24.90
2018-09-10T11:18:52.202Z,25.00
2018-09-10T11:21:20.479Z,25.00
2018-09-10T11:23:48.723Z,24.90
2018-09-10T11:26:16.982Z,24.90
2018-09-10T11:28:45.219Z,24.90
2018-09-10T11:31:13.452Z,24.80
2018-09-10T11:33:41.733Z,24.80
2018-09-10T11:36:09.943Z,24.90
2018-09-10T11:38:38.235Z,25.00
2018-09-10T11:41:06.491Z,25.10
2018-09-10T11:43:34.771Z,25.00
2018-09-10T11:46:03.005Z,24.90
2018-09-10T11:48:31.264Z,24.90
2018-09-10T11:50:59.494Z,24.60
2018-09-10T11:53:27.738Z,24.40
2018-09-10T11:55:55.992Z,24.20
2018-09-10T11:58:24.240Z,24.10
2018-09-10T12:00:52.492Z,24.00
2018-09-10T12:03:20.724Z,23.90
2018-09-10T12:05:48.992Z,23.70
2018-09-10T12:08:17.231Z,23.60
2018-09-10T12:10:45.500Z,23.40
2018-09-10T12:13:13.939Z,23.20
2018-09-10T12:15:42.184Z,23.10
2018-09-10T12:18:10.439Z,23.10
2018-09-10T12:20:38.682Z,23.00
2018-09-10T12:23:06.944Z,22.90
2018-09-10T12:25:35.168Z,22.80
2018-09-10T12:28:03.410Z,22.80
2018-09-10T12:30:31.648Z,22.80
2018-09-10T12:32:59.924Z,22.80
2018-09-10T12:35:28.160Z,22.70
2018-09-10T12:37:56.383Z,22.70
2018-09-10T12:40:24.607Z,22.60
2018-09-10T12:42:52.859Z,22.60
2018-09-10T12:45:21.095Z,22.60
2018-09-10T12:47:49.338Z,22.50
2018-09-10T12:50:17.576Z,22.60
2018-09-10T12:52:45.822Z,22.50
2018-09-10T12:55:14.299Z,22.60
2018-09-10T12:57:42.532Z,22.70
2018-09-10T13:00:10.844Z,22.80
2018-09-10T13:02:39.079Z,22.90
2018-09-10T13:05:07.331Z,22.90
2018-09-10T13:07:35.571Z,22.90
2018-09-10T13:10:03.822Z,23.00
2018-09-10T13:12:32.079Z,23.00
2018-09-10T13:15:00.336Z,23.10
2018-09-10T13:17:28.575Z,23.30
2018-09-10T13:19:56.814Z,23.20
2018-09-10T13:22:25.066Z,23.20
2018-09-10T13:24:53.330Z,23.20
2018-09-10T13:27:21.571Z,23.10
2018-09-10T13:29:49.927Z,23.00
2018-09-10T13:32:18.076Z,22.90
2018-09-10T13:34:46.340Z,22.90
2018-09-10T13:37:14.600Z,22.90
2018-09-10T13:39:42.928Z,22.80
2018-09-10T13:42:12.187Z,22.70
2018-09-10T13:44:40.439Z,22.70
2018-09-10T13:47:08.681Z,22.60
2018-09-10T13:49:36.930Z,22.60
2018-09-10T13:52:05.217Z,22.50
2018-09-10T13:54:33.460Z,22.50
2018-09-10T13:57:01.715Z,22.40
2018-09-10T13:59:29.985Z,22.40
2018-09-10T14:01:58.238Z,22.40
2018-09-10T14:04:26.476Z,22.40
2018-09-10T14:06:54.715Z,22.30
2018-09-10T14:09:22.995Z,22.20
2018-09-10T14:11:51.263Z,22.20
2018-09-10T14:14:19.520Z,22.20
2018-09-10T14:16:47.778Z,22.30
2018-09-10T14:19:16.036Z,22.30
2018-09-10T14:21:44.294Z,22.30
2018-09-10T14:24:12.569Z,22.20
2018-09-10T14:26:40.824Z,22.10
2018-09-10T14:29:09.072Z,22.10
2018-09-10T14:31:37.321Z,22.00
2018-09-10T14:34:06.267Z,21.90
2018-09-10T14:36:34.512Z,21.80
2018-09-10T14:39:02.792Z,21.80
2018-09-10T14:41:31.059Z,21.80
2018-09-10T14:43:59.319Z,21.80
2018-09-10T14:46:27.546Z,21.80
2018-09-10T14:48:55.795Z,21.90
2018-09-10T14:51:24.056Z,21.90
2018-09-10T14:53:53.013Z,21.80
2018-09-10T14:56:21.379Z,21.80
2018-09-10T14:58:49.787Z,21.80
2018-09-10T15:01:18.027Z,21.80
2018-09-10T15:03:46.297Z,21.70
2018-09-10T15:06:14.556Z,21.60
2018-09-10T15:08:42.803Z,21.60
2018-09-10T15:11:11.388Z,21.60
2018-09-10T15:13:39.619Z,21.60
2018-09-10T15:16:07.869Z,21.60
2018-09-10T15:18:36.181Z,21.50
2018-09-10T15:21:04.380Z,21.50
2018-09-10T15:23:32.613Z,21.50
2018-09-10T15:26:00.943Z,21.40
2018-09-10T15:28:32.155Z,21.30
2018-09-10T15:31:00.463Z,21.30
2018-09-10T15:33:30.268Z,21.30
2018-09-10T15:35:58.532Z,21.20
2018-09-10T15:38:26.783Z,21.20
2018-09-10T15:40:55.035Z,21.10
2018-09-10T15:43:23.276Z,21.10
2018-09-10T15:45:51.526Z,21.10
2018-09-10T15:48:19.777Z,21.10
2018-09-10T15:50:48.111Z,21.10
2018-09-10T15:53:16.406Z,21.10
2018-09-10T15:55:44.614Z,21.20
2018-09-10T15:58:12.854Z,21.20
2018-09-10T16:00:41.099Z,21.20
2018-09-10T16:03:10.554Z,21.20
2018-09-10T16:05:39.181Z,21.20
2018-09-10T16:08:07.435Z,21.20
2018-09-10T16:10:35.748Z,21.20
2018-09-10T16:13:03.998Z,21.10
2018-09-10T16:15:32.518Z,21.10
2018-09-10T16:18:00.743Z,21.10
2018-09-10T16:20:29.005Z,21.10
2018-09-10T16:22:57.244Z,21.10
2018-09-10T16:25:25.620Z,21.20
2018-09-10T16:27:53.851Z,21.10
2018-09-10T16:30:22.130Z,21.10
2018-09-10T16:32:50.375Z,21.00
2018-09-10T16:35:18.614Z,21.00
2018-09-10T16:37:46.851Z,20.90
2018-09-10T16:40:15.108Z,20.80
2018-09-10T16:42:43.356Z,20.80
2018-09-10T16:45:11.614Z,20.80
2018-09-10T16:47:39.871Z,20.80
2018-09-10T16:50:08.336Z,20.70
2018-09-10T16:52:36.593Z,20.70
2018-09-10T16:55:04.917Z,20.70
2018-09-10T16:57:33.140Z,20.60
2018-09-10T17:00:01.532Z,20.60
2018-09-10T17:02:29.765Z,20.50
2018-09-10T17:04:58.026Z,20.40
2018-09-10T17:07:26.303Z,20.50
2018-09-10T17:09:54.544Z,20.40
2018-09-10T17:12:22.868Z,20.40
2018-09-10T17:14:51.155Z,20.40
2018-09-10T17:17:19.334Z,20.40
2018-09-10T17:19:47.561Z,20.30
2018-09-10T17:22:15.860Z,20.30
2018-09-10T17:24:44.161Z,20.20
2018-09-10T17:27:12.436Z,20.20
2018-09-10T17:29:40.679Z,20.10
2018-09-10T17:32:08.926Z,20.10
2018-09-10T17:34:37.164Z,20.10
2018-09-10T17:37:05.479Z,20.00
2018-09-10T17:39:33.708Z,20.00
2018-09-10T17:42:01.940Z,19.90
2018-09-10T17:44:30.196Z,19.90
2018-09-10T17:46:58.479Z,19.80
2018-09-10T17:49:26.695Z,19.80
2018-09-10T17:51:54.932Z,19.70
2018-09-10T17:54:23.323Z,19.70
2018-09-10T17:56:51.611Z,19.70
2018-09-10T17:59:19.847Z,19.70
2018-09-10T18:01:48.099Z,19.70
2018-09-10T18:04:16.369Z,19.70
2018-09-10T18:06:44.859Z,19.70
2018-09-10T18:09:13.423Z,19.60
2018-09-10T18:11:42.211Z,19.60
2018-09-10T18:14:10.475Z,19.60
2018-09-10T18:16:38.691Z,19.60
2018-09-10T18:19:06.916Z,19.60
2018-09-10T18:21:35.479Z,19.50
2018-09-10T18:24:04.368Z,19.50
2018-09-10T18:26:32.594Z,19.50
2018-09-10T18:29:01.066Z,19.40
2018-09-10T18:31:29.323Z,19.40
2018-09-10T18:33:57.597Z,19.40
2018-09-10T18:36:25.853Z,19.40
2018-09-10T18:38:54.104Z,19.20
2018-09-10T18:41:22.385Z,19.20
2018-09-10T18:43:50.726Z,19.10
2018-09-10T18:46:18.991Z,19.10
2018-09-10T18:48:47.272Z,19.00
2018-09-10T18:51:15.675Z,19.00
2018-09-10T18:53:43.979Z,18.90
2018-09-10T18:56:12.219Z,18.80
2018-09-10T18:58:40.467Z,18.70
2018-09-10T19:01:08.939Z,18.70
2018-09-10T19:03:37.011Z,18.70
2018-09-10T19:06:05.308Z,18.70
2018-09-10T19:08:33.619Z,18.70
2018-09-10T19:11:01.860Z,18.70
2018-09-10T19:13:30.123Z,18.60
2018-09-10T19:15:58.511Z,18.60
2018-09-10T19:18:31.964Z,18.60
2018-09-10T19:21:00.280Z,18.60
2018-09-10T19:23:28.680Z,18.60
2018-09-10T19:25:57.175Z,18.50
2018-09-10T19:28:25.584Z,18.50
2018-09-10T19:30:54.008Z,18.50
2018-09-10T19:33:22.257Z,18.50
2018-09-10T19:35:50.487Z,18.50
2018-09-10T19:38:18.847Z,18.50
2018-09-10T19:40:47.167Z,18.40
2018-09-10T19:43:15.402Z,18.40
2018-09-10T19:45:43.776Z,18.40
2018-09-10T19:48:12.108Z,18.40
2018-09-10T19:50:40.385Z,18.40
2018-09-10T19:53:08.944Z,18.40
2018-09-10T19:55:37.279Z,18.40
2018-09-10T19:58:05.523Z,18.40
2018-09-10T20:00:33.760Z,18.40
2018-09-10T20:03:02.324Z,18.30
2018-09-10T20:05:30.602Z,18.30
2018-09-10T20:07:58.871Z,18.20
2018-09-10T20:10:27.214Z,18.20
2018-09-10T20:12:55.525Z,18.10
2018-09-10T20:15:23.804Z,18.20
2018-09-10T20:17:52.127Z,18.10
2018-09-10T20:20:20.404Z,18.20
2018-09-10T20:22:48.659Z,18.20
2018-09-10T20:25:16.983Z,18.20
2018-09-10T20:27:45.263Z,18.20
2018-09-10T20:30:13.541Z,18.20
2018-09-10T20:32:41.799Z,18.20
2018-09-10T20:35:10.243Z,18.20
2018-09-10T20:37:38.669Z,18.20
2018-09-10T20:40:06.915Z,18.20
2018-09-10T20:42:35.231Z,18.20
2018-09-10T20:45:03.590Z,18.20
2018-09-10T20:47:31.813Z,18.20
2018-09-10T20:50:01.070Z,18.10
2018-09-10T20:52:29.328Z,18.10
2018-09-10T20:54:57.631Z,18.10
2018-09-10T20:57:25.852Z,18.20
2018-09-10T20:59:54.369Z,18.10
2018-09-10T21:02:22.864Z,18.10
2018-09-10T21:04:51.099Z,18.10
2018-09-10T21:07:19.620Z,18.10
2018-09-10T21:09:47.920Z,18.10
2018-09-10T21:12:16.184Z,18.10
2018-09-10T21:14:44.467Z,18.10
2018-09-10T21:17:12.797Z,18.00
2018-09-10T21:19:41.156Z,18.00
2018-09-10T21:22:09.447Z,18.00
2018-09-10T21:24:37.743Z,18.00
2018-09-10T21:27:06.099Z,18.00
2018-09-10T21:29:34.327Z,18.00
2018-09-10T21:32:02.640Z,18.00
2018-09-10T21:34:31.060Z,18.00
2018-09-10T21:36:59.300Z,18.00
2018-09-10T21:39:27.547Z,18.00
2018-09-10T21:41:55.843Z,18.00
2018-09-10T21:44:24.124Z,18.00
2018-09-10T21:46:53.183Z,18.00
2018-09-10T21:49:21.711Z,18.00
2018-09-10T21:51:50.219Z,17.90
2018-09-10T21:54:18.475Z,17.90
2018-09-10T21:56:46.732Z,17.90
2018-09-10T21:59:15.101Z,17.90
2018-09-10T22:01:43.353Z,17.90
2018-09-10T22:04:11.579Z,17.90
2018-09-10T22:06:39.989Z,17.80
2018-09-10T22:09:08.680Z,17.90
2018-09-10T22:11:41.161Z,17.90
2018-09-10T22:14:09.441Z,17.90
2018-09-10T22:16:37.686Z,17.90
2018-09-10T22:19:05.923Z,17.80
2018-09-10T22:21:34.468Z,17.80
2018-09-10T22:24:02.739Z,17.70
2018-09-10T22:26:30.976Z,17.70
2018-09-10T22:28:59.214Z,17.70
2018-09-10T22:31:27.454Z,17.70
2018-09-10T22:33:55.695Z,17.60
2018-09-10T22:36:24.008Z,17.60
2018-09-10T22:38:52.263Z,17.60
2018-09-10T22:41:20.498Z,17.60
2018-09-10T22:43:48.750Z,17.60
2018-09-10T22:46:16.998Z,17.60
2018-09-10T22:48:45.247Z,17.60
2018-09-10T22:51:13.516Z,17.60
2018-09-10T22:53:41.758Z,17.60
2018-09-10T22:56:09.995Z,17.60
2018-09-10T22:58:38.321Z,17.60
2018-09-10T23:01:06.551Z,17.60
2018-09-10T23:03:34.791Z,17.60
2018-09-10T23:06:03.047Z,17.70
2018-09-10T23:08:31.342Z,17.70
2018-09-10T23:10:59.546Z,17.60
2018-09-10T23:13:27.792Z,17.60
2018-09-10T23:15:56.056Z,17.50
2018-09-10T23:18:24.576Z,17.50
2018-09-10T23:20:52.815Z,17.50
2018-09-10T23:23:21.097Z,17.50
2018-09-10T23:25:49.347Z,17.60
2018-09-10T23:28:18.111Z,17.60
2018-09-10T23:30:46.495Z,17.60
2018-09-10T23:33:14.722Z,17.60
2018-09-10T23:35:42.972Z,17.60
2018-09-10T23:38:11.216Z,17.60
2018-09-10T23:40:39.459Z,17.60
2018-09-10T23:43:07.701Z,17.60
2018-09-10T23:45:35.919Z,17.60
2018-09-10T23:48:04.199Z,17.60
2018-09-10T23:50:32.447Z,17.60
2018-09-10T23:53:00.698Z,17.60
2018-09-10T23:55:29.191Z,17.50
2018-09-10T23:57:57.423Z,17.50
